sensor_id;sensor_type;location;lat;lon;timestamp;temperature;humidity
18392;DHT22;9322;50.932;5.318;2023-05-07T00:01:44;15.30;1.40
18392;DHT22;9322;50.932;5.318;2023-05-07T00:04:10;15.20;1.40
18392;DHT22;9322;50.932;5.318;2023-05-07T00:06:36;15.20;1.40
18392;DHT22;9322;50.932;5.318;2023-05-07T00:09:02;15.20;1.40
18392;DHT22;9322;50.932;5.318;2023-05-07T00:11:28;15.30;1.40
18392;DHT22;9322;50.932;5.318;2023-05-07T00:13:54;15.30;1.40
18392;DHT22;9322;50.932;5.318;2023-05-07T00:16:20;15.40;1.40
18392;DHT22;9322;50.932;5.318;2023-05-07T00:18:45;15.40;1.40
18392;DHT22;9322;50.932;5.318;2023-05-07T00:21:11;15.50;1.40
18392;DHT22;9322;50.932;5.318;2023-05-07T00:23:37;15.50;1.40
18392;DHT22;9322;50.932;5.318;2023-05-07T00:26:03;15.60;1.40
18392;DHT22;9322;50.932;5.318;2023-05-07T00:28:29;15.60;1.40
18392;DHT22;9322;50.932;5.318;2023-05-07T00:30:55;15.60;1.40
18392;DHT22;9322;50.932;5.318;2023-05-07T00:33:20;15.60;1.40
18392;DHT22;9322;50.932;5.318;2023-05-07T00:35:47;15.60;1.40
18392;DHT22;9322;50.932;5.318;2023-05-07T00:38:13;15.60;1.40
18392;DHT22;9322;50.932;5.318;2023-05-07T00:40:39;15.70;1.40
18392;DHT22;9322;50.932;5.318;2023-05-07T00:43:06;15.60;1.40
18392;DHT22;9322;50.932;5.318;2023-05-07T00:45:33;15.70;1.40
18392;DHT22;9322;50.932;5.318;2023-05-07T00:48:02;15.80;1.40
18392;DHT22;9322;50.932;5.318;2023-05-07T00:50:28;15.70;1.40
18392;DHT22;9322;50.932;5.318;2023-05-07T00:52:55;15.80;1.40
18392;DHT22;9322;50.932;5.318;2023-05-07T00:55:22;15.80;1.40
18392;DHT22;9322;50.932;5.318;2023-05-07T00:57:49;15.90;1.40
18392;DHT22;9322;50.932;5.318;2023-05-07T01:00:15;15.80;1.40
18392;DHT22;9322;50.932;5.318;2023-05-07T01:02:41;15.70;1.40
18392;DHT22;9322;50.932;5.318;2023-05-07T01:05:10;15.70;1.40
18392;DHT22;9322;50.932;5.318;2023-05-07T01:07:37;15.70;1.40
18392;DHT22;9322;50.932;5.318;2023-05-07T01:10:05;15.70;1.40
18392;DHT22;9322;50.932;5.318;2023-05-07T01:12:31;15.70;1.40
18392;DHT22;9322;50.932;5.318;2023-05-07T01:14:58;15.70;1.40
18392;DHT22;9322;50.932;5.318;2023-05-07T01:17:24;15.70;1.40
18392;DHT22;9322;50.932;5.318;2023-05-07T01:19:50;15.60;1.40
18392;DHT22;9322;50.932;5.318;2023-05-07T01:25:15;15.60;1.40
18392;DHT22;9322;50.932;5.318;2023-05-07T01:27:41;15.50;1.40
18392;DHT22;9322;50.932;5.318;2023-05-07T01:30:07;15.50;1.40
18392;DHT22;9322;50.932;5.318;2023-05-07T01:32:43;15.60;1.40
18392;DHT22;9322;50.932;5.318;2023-05-07T01:35:12;15.60;1.40
18392;DHT22;9322;50.932;5.318;2023-05-07T01:37:39;15.50;1.40
18392;DHT22;9322;50.932;5.318;2023-05-07T01:40:06;15.50;1.40
18392;DHT22;9322;50.932;5.318;2023-05-07T01:42:32;15.40;1.40
18392;DHT22;9322;50.932;5.318;2023-05-07T01:44:58;15.40;1.40
18392;DHT22;9322;50.932;5.318;2023-05-07T01:47:25;15.40;1.40
18392;DHT22;9322;50.932;5.318;2023-05-07T01:49:51;15.40;1.40
18392;DHT22;9322;50.932;5.318;2023-05-07T01:52:17;15.40;1.40
18392;DHT22;9322;50.932;5.318;2023-05-07T01:54:42;15.40;1.40
18392;DHT22;9322;50.932;5.318;2023-05-07T01:57:08;15.30;1.40
18392;DHT22;9322;50.932;5.318;2023-05-07T01:59:33;15.20;1.40
18392;DHT22;9322;50.932;5.318;2023-05-07T02:01:59;15.30;1.40
18392;DHT22;9322;50.932;5.318;2023-05-07T02:04:26;15.30;1.40
18392;DHT22;9322;50.932;5.318;2023-05-07T02:06:51;15.40;1.40
18392;DHT22;9322;50.932;5.318;2023-05-07T02:09:18;15.30;1.40
18392;DHT22;9322;50.932;5.318;2023-05-07T02:11:44;15.30;1.40
18392;DHT22;9322;50.932;5.318;2023-05-07T02:14:10;15.40;1.40
18392;DHT22;9322;50.932;5.318;2023-05-07T02:16:36;15.50;1.40
18392;DHT22;9322;50.932;5.318;2023-05-07T02:19:01;15.40;1.40
18392;DHT22;9322;50.932;5.318;2023-05-07T02:21:27;15.40;1.40
18392;DHT22;9322;50.932;5.318;2023-05-07T02:23:53;15.40;1.40
18392;DHT22;9322;50.932;5.318;2023-05-07T02:26:19;15.40;1.40
18392;DHT22;9322;50.932;5.318;2023-05-07T02:28:45;15.40;1.40
18392;DHT22;9322;50.932;5.318;2023-05-07T02:31:10;15.40;1.40
18392;DHT22;9322;50.932;5.318;2023-05-07T02:33:36;15.40;1.40
18392;DHT22;9322;50.932;5.318;2023-05-07T02:36:08;15.30;1.40
18392;DHT22;9322;50.932;5.318;2023-05-07T02:38:34;15.30;1.40
18392;DHT22;9322;50.932;5.318;2023-05-07T02:41:00;15.30;1.40
18392;DHT22;9322;50.932;5.318;2023-05-07T02:43:26;15.30;1.40
18392;DHT22;9322;50.932;5.318;2023-05-07T02:46:05;15.40;1.40
18392;DHT22;9322;50.932;5.318;2023-05-07T02:48:31;15.50;1.40
18392;DHT22;9322;50.932;5.318;2023-05-07T02:50:57;15.50;1.40
18392;DHT22;9322;50.932;5.318;2023-05-07T02:53:22;15.50;1.40
18392;DHT22;9322;50.932;5.318;2023-05-07T02:55:51;15.40;1.40
18392;DHT22;9322;50.932;5.318;2023-05-07T02:58:17;15.50;1.40
18392;DHT22;9322;50.932;5.318;2023-05-07T03:00:43;15.50;1.40
18392;DHT22;9322;50.932;5.318;2023-05-07T03:03:08;15.30;1.40
18392;DHT22;9322;50.932;5.318;2023-05-07T03:05:34;15.30;1.40
18392;DHT22;9322;50.932;5.318;2023-05-07T03:07:59;15.30;1.40
18392;DHT22;9322;50.932;5.318;2023-05-07T03:10:25;15.30;1.40
18392;DHT22;9322;50.932;5.318;2023-05-07T03:12:51;15.30;1.40
18392;DHT22;9322;50.932;5.318;2023-05-07T03:15:16;15.30;1.40
18392;DHT22;9322;50.932;5.318;2023-05-07T03:17:42;15.20;1.40
18392;DHT22;9322;50.932;5.318;2023-05-07T03:20:08;15.20;1.40
18392;DHT22;9322;50.932;5.318;2023-05-07T03:22:34;15.20;1.40
18392;DHT22;9322;50.932;5.318;2023-05-07T03:25:00;15.30;1.40
18392;DHT22;9322;50.932;5.318;2023-05-07T03:27:26;15.30;1.40
18392;DHT22;9322;50.932;5.318;2023-05-07T03:29:51;15.30;1.40
18392;DHT22;9322;50.932;5.318;2023-05-07T03:32:17;15.20;1.40
18392;DHT22;9322;50.932;5.318;2023-05-07T03:34:43;15.20;1.40
18392;DHT22;9322;50.932;5.318;2023-05-07T03:37:08;15.30;1.40
18392;DHT22;9322;50.932;5.318;2023-05-07T03:39:34;15.30;1.40
18392;DHT22;9322;50.932;5.318;2023-05-07T03:42:00;15.30;1.40
18392;DHT22;9322;50.932;5.318;2023-05-07T03:44:26;15.30;1.40
18392;DHT22;9322;50.932;5.318;2023-05-07T03:46:52;15.30;1.40
18392;DHT22;9322;50.932;5.318;2023-05-07T03:49:17;15.20;1.40
18392;DHT22;9322;50.932;5.318;2023-05-07T03:51:43;15.20;1.40
18392;DHT22;9322;50.932;5.318;2023-05-07T03:54:09;15.30;1.40
18392;DHT22;9322;50.932;5.318;2023-05-07T03:56:34;15.20;1.40
18392;DHT22;9322;50.932;5.318;2023-05-07T03:59:00;15.30;1.40
18392;DHT22;9322;50.932;5.318;2023-05-07T04:01:26;15.30;1.40
18392;DHT22;9322;50.932;5.318;2023-05-07T04:03:52;15.30;1.40
18392;DHT22;9322;50.932;5.318;2023-05-07T04:06:18;15.30;1.40
18392;DHT22;9322;50.932;5.318;2023-05-07T04:08:43;15.30;1.40
18392;DHT22;9322;50.932;5.318;2023-05-07T04:11:09;15.30;1.40
18392;DHT22;9322;50.932;5.318;2023-05-07T04:13:35;15.40;1.40
18392;DHT22;9322;50.932;5.318;2023-05-07T04:16:02;15.30;1.40
18392;DHT22;9322;50.932;5.318;2023-05-07T04:18:28;15.30;1.40
18392;DHT22;9322;50.932;5.318;2023-05-07T04:20:54;15.30;1.40
18392;DHT22;9322;50.932;5.318;2023-05-07T04:23:20;15.40;1.40
18392;DHT22;9322;50.932;5.318;2023-05-07T04:25:45;15.40;1.40
18392;DHT22;9322;50.932;5.318;2023-05-07T04:28:11;15.40;1.40
18392;DHT22;9322;50.932;5.318;2023-05-07T04:30:38;15.40;1.40
18392;DHT22;9322;50.932;5.318;2023-05-07T04:33:03;15.50;1.40
18392;DHT22;9322;50.932;5.318;2023-05-07T04:35:29;15.40;1.40
18392;DHT22;9322;50.932;5.318;2023-05-07T04:37:55;15.40;1.40
18392;DHT22;9322;50.932;5.318;2023-05-07T04:40:20;15.50;1.40
18392;DHT22;9322;50.932;5.318;2023-05-07T04:42:46;15.50;1.40
18392;DHT22;9322;50.932;5.318;2023-05-07T04:45:12;15.50;1.40
18392;DHT22;9322;50.932;5.318;2023-05-07T04:47:38;15.50;1.40
18392;DHT22;9322;50.932;5.318;2023-05-07T04:50:05;15.50;1.40
18392;DHT22;9322;50.932;5.318;2023-05-07T04:52:30;15.60;1.40
18392;DHT22;9322;50.932;5.318;2023-05-07T04:54:59;15.80;1.40
18392;DHT22;9322;50.932;5.318;2023-05-07T04:57:25;15.70;1.40
18392;DHT22;9322;50.932;5.318;2023-05-07T04:59:51;15.70;1.40
18392;DHT22;9322;50.932;5.318;2023-05-07T05:02:17;15.70;1.40
18392;DHT22;9322;50.932;5.318;2023-05-07T05:04:43;15.80;1.40
18392;DHT22;9322;50.932;5.318;2023-05-07T05:07:08;15.80;1.40
18392;DHT22;9322;50.932;5.318;2023-05-07T05:09:34;15.80;1.40
18392;DHT22;9322;50.932;5.318;2023-05-07T05:12:00;15.90;1.40
18392;DHT22;9322;50.932;5.318;2023-05-07T05:14:25;15.90;1.40
18392;DHT22;9322;50.932;5.318;2023-05-07T05:16:51;15.90;1.40
18392;DHT22;9322;50.932;5.318;2023-05-07T05:19:16;16.00;1.40
18392;DHT22;9322;50.932;5.318;2023-05-07T05:21:42;16.10;1.40
18392;DHT22;9322;50.932;5.318;2023-05-07T05:24:08;16.10;1.40
18392;DHT22;9322;50.932;5.318;2023-05-07T05:26:34;16.20;1.40
18392;DHT22;9322;50.932;5.318;2023-05-07T05:29:00;16.20;1.40
18392;DHT22;9322;50.932;5.318;2023-05-07T05:31:25;16.40;1.40
18392;DHT22;9322;50.932;5.318;2023-05-07T05:33:51;16.40;1.40
18392;DHT22;9322;50.932;5.318;2023-05-07T05:36:17;16.20;1.40
18392;DHT22;9322;50.932;5.318;2023-05-07T05:38:42;16.30;1.40
18392;DHT22;9322;50.932;5.318;2023-05-07T05:41:09;16.40;1.40
18392;DHT22;9322;50.932;5.318;2023-05-07T05:43:35;16.50;1.40
18392;DHT22;9322;50.932;5.318;2023-05-07T05:46:01;16.70;1.40
18392;DHT22;9322;50.932;5.318;2023-05-07T05:48:26;16.90;1.40
18392;DHT22;9322;50.932;5.318;2023-05-07T05:50:52;17.30;1.40
18392;DHT22;9322;50.932;5.318;2023-05-07T05:53:18;17.60;1.40
18392;DHT22;9322;50.932;5.318;2023-05-07T05:55:44;18.00;1.40
18392;DHT22;9322;50.932;5.318;2023-05-07T05:58:10;18.10;1.40
18392;DHT22;9322;50.932;5.318;2023-05-07T06:00:36;18.30;1.40
18392;DHT22;9322;50.932;5.318;2023-05-07T06:03:01;18.40;1.40
18392;DHT22;9322;50.932;5.318;2023-05-07T06:05:27;18.40;1.40
18392;DHT22;9322;50.932;5.318;2023-05-07T06:07:53;18.40;1.40
18392;DHT22;9322;50.932;5.318;2023-05-07T06:10:19;18.40;1.40
18392;DHT22;9322;50.932;5.318;2023-05-07T06:12:44;18.20;1.40
18392;DHT22;9322;50.932;5.318;2023-05-07T06:15:10;18.30;1.40
18392;DHT22;9322;50.932;5.318;2023-05-07T06:17:36;18.40;1.40
18392;DHT22;9322;50.932;5.318;2023-05-07T06:20:02;18.30;1.40
18392;DHT22;9322;50.932;5.318;2023-05-07T06:22:27;18.50;1.40
18392;DHT22;9322;50.932;5.318;2023-05-07T06:24:53;18.50;1.40
18392;DHT22;9322;50.932;5.318;2023-05-07T06:27:19;18.80;1.40
18392;DHT22;9322;50.932;5.318;2023-05-07T06:29:44;19.00;1.40
18392;DHT22;9322;50.932;5.318;2023-05-07T06:32:11;19.20;1.40
18392;DHT22;9322;50.932;5.318;2023-05-07T06:34:38;19.40;1.40
18392;DHT22;9322;50.932;5.318;2023-05-07T06:37:04;19.60;1.40
18392;DHT22;9322;50.932;5.318;2023-05-07T06:39:30;19.50;1.40
18392;DHT22;9322;50.932;5.318;2023-05-07T06:41:56;19.60;1.40
18392;DHT22;9322;50.932;5.318;2023-05-07T06:44:22;19.60;1.40
18392;DHT22;9322;50.932;5.318;2023-05-07T06:46:48;19.50;1.40
18392;DHT22;9322;50.932;5.318;2023-05-07T06:49:14;19.60;1.40
18392;DHT22;9322;50.932;5.318;2023-05-07T06:51:40;19.50;1.40
18392;DHT22;9322;50.932;5.318;2023-05-07T06:54:05;19.40;1.40
18392;DHT22;9322;50.932;5.318;2023-05-07T06:56:32;19.20;1.40
18392;DHT22;9322;50.932;5.318;2023-05-07T06:58:57;19.20;1.40
18392;DHT22;9322;50.932;5.318;2023-05-07T07:01:23;18.90;1.40
18392;DHT22;9322;50.932;5.318;2023-05-07T07:03:49;18.70;1.40
18392;DHT22;9322;50.932;5.318;2023-05-07T07:06:16;18.70;1.40
18392;DHT22;9322;50.932;5.318;2023-05-07T07:08:42;18.90;1.40
18392;DHT22;9322;50.932;5.318;2023-05-07T07:11:08;19.10;1.40
18392;DHT22;9322;50.932;5.318;2023-05-07T07:13:34;19.20;1.40
18392;DHT22;9322;50.932;5.318;2023-05-07T07:16:00;19.40;1.40
18392;DHT22;9322;50.932;5.318;2023-05-07T07:18:25;19.20;1.40
18392;DHT22;9322;50.932;5.318;2023-05-07T07:20:51;19.30;1.40
18392;DHT22;9322;50.932;5.318;2023-05-07T07:23:17;19.60;1.40
18392;DHT22;9322;50.932;5.318;2023-05-07T07:25:43;19.70;1.40
18392;DHT22;9322;50.932;5.318;2023-05-07T07:28:08;19.80;1.40
18392;DHT22;9322;50.932;5.318;2023-05-07T07:30:36;20.00;1.40
18392;DHT22;9322;50.932;5.318;2023-05-07T07:33:02;20.40;1.40
18392;DHT22;9322;50.932;5.318;2023-05-07T07:35:32;20.50;1.40
18392;DHT22;9322;50.932;5.318;2023-05-07T07:37:58;20.50;1.40
18392;DHT22;9322;50.932;5.318;2023-05-07T07:40:24;20.50;1.40
18392;DHT22;9322;50.932;5.318;2023-05-07T07:42:50;20.30;1.40
18392;DHT22;9322;50.932;5.318;2023-05-07T07:45:16;20.20;1.40
18392;DHT22;9322;50.932;5.318;2023-05-07T07:47:42;20.60;1.40
18392;DHT22;9322;50.932;5.318;2023-05-07T07:50:08;20.90;1.40
18392;DHT22;9322;50.932;5.318;2023-05-07T07:52:34;20.70;1.40
18392;DHT22;9322;50.932;5.318;2023-05-07T07:55:00;20.50;1.40
18392;DHT22;9322;50.932;5.318;2023-05-07T07:57:26;20.50;1.40
18392;DHT22;9322;50.932;5.318;2023-05-07T07:59:52;21.20;1.40
18392;DHT22;9322;50.932;5.318;2023-05-07T08:02:18;21.90;1.40
18392;DHT22;9322;50.932;5.318;2023-05-07T08:04:43;22.20;1.40
18392;DHT22;9322;50.932;5.318;2023-05-07T08:07:10;22.50;1.40
18392;DHT22;9322;50.932;5.318;2023-05-07T08:09:37;22.70;1.40
18392;DHT22;9322;50.932;5.318;2023-05-07T08:12:04;23.20;1.40
18392;DHT22;9322;50.932;5.318;2023-05-07T08:14:30;23.40;1.40
18392;DHT22;9322;50.932;5.318;2023-05-07T08:16:56;23.80;1.40
18392;DHT22;9322;50.932;5.318;2023-05-07T08:19:22;24.20;1.40
18392;DHT22;9322;50.932;5.318;2023-05-07T08:21:48;24.20;1.40
18392;DHT22;9322;50.932;5.318;2023-05-07T08:24:14;24.50;1.40
18392;DHT22;9322;50.932;5.318;2023-05-07T08:26:41;24.60;1.40
18392;DHT22;9322;50.932;5.318;2023-05-07T08:29:07;24.40;1.40
18392;DHT22;9322;50.932;5.318;2023-05-07T08:31:32;24.00;1.40
18392;DHT22;9322;50.932;5.318;2023-05-07T08:33:59;24.20;1.40
18392;DHT22;9322;50.932;5.318;2023-05-07T08:36:25;24.50;1.40
18392;DHT22;9322;50.932;5.318;2023-05-07T08:38:52;24.70;1.40
18392;DHT22;9322;50.932;5.318;2023-05-07T08:41:18;24.70;1.40
18392;DHT22;9322;50.932;5.318;2023-05-07T08:43:47;24.70;1.40
18392;DHT22;9322;50.932;5.318;2023-05-07T08:46:18;24.40;1.40
18392;DHT22;9322;50.932;5.318;2023-05-07T08:48:44;24.40;1.40
18392;DHT22;9322;50.932;5.318;2023-05-07T08:51:19;24.50;1.40
18392;DHT22;9322;50.932;5.318;2023-05-07T08:53:46;25.10;1.40
18392;DHT22;9322;50.932;5.318;2023-05-07T08:56:14;25.80;1.40
18392;DHT22;9322;50.932;5.318;2023-05-07T08:58:45;27.00;1.40
18392;DHT22;9322;50.932;5.318;2023-05-07T09:01:16;27.30;1.40
18392;DHT22;9322;50.932;5.318;2023-05-07T09:03:45;27.90;1.40
18392;DHT22;9322;50.932;5.318;2023-05-07T09:06:11;28.40;1.40
18392;DHT22;9322;50.932;5.318;2023-05-07T09:08:37;29.20;1.40
18392;DHT22;9322;50.932;5.318;2023-05-07T09:11:03;29.60;1.40
18392;DHT22;9322;50.932;5.318;2023-05-07T09:13:29;30.00;1.40
18392;DHT22;9322;50.932;5.318;2023-05-07T09:15:55;30.00;1.40
18392;DHT22;9322;50.932;5.318;2023-05-07T09:18:23;29.90;1.40
18392;DHT22;9322;50.932;5.318;2023-05-07T09:20:49;29.80;1.40
18392;DHT22;9322;50.932;5.318;2023-05-07T09:23:15;30.30;1.40
18392;DHT22;9322;50.932;5.318;2023-05-07T09:25:40;30.50;1.40
18392;DHT22;9322;50.932;5.318;2023-05-07T09:28:06;29.90;1.40
18392;DHT22;9322;50.932;5.318;2023-05-07T09:30:33;28.70;1.40
18392;DHT22;9322;50.932;5.318;2023-05-07T09:33:00;28.80;1.40
18392;DHT22;9322;50.932;5.318;2023-05-07T09:35:27;28.80;1.40
18392;DHT22;9322;50.932;5.318;2023-05-07T09:37:54;29.20;1.40
18392;DHT22;9322;50.932;5.318;2023-05-07T09:40:27;29.50;1.40
18392;DHT22;9322;50.932;5.318;2023-05-07T09:42:54;29.80;1.40
18392;DHT22;9322;50.932;5.318;2023-05-07T09:45:26;30.00;1.40
18392;DHT22;9322;50.932;5.318;2023-05-07T09:47:57;30.20;1.40
18392;DHT22;9322;50.932;5.318;2023-05-07T09:50:27;30.40;1.40
18392;DHT22;9322;50.932;5.318;2023-05-07T09:52:55;28.30;1.40
18392;DHT22;9322;50.932;5.318;2023-05-07T09:55:22;28.50;1.40
18392;DHT22;9322;50.932;5.318;2023-05-07T09:57:51;28.60;1.40
18392;DHT22;9322;50.932;5.318;2023-05-07T10:00:21;27.20;1.40
18392;DHT22;9322;50.932;5.318;2023-05-07T10:02:49;26.40;1.40
18392;DHT22;9322;50.932;5.318;2023-05-07T10:05:18;26.30;1.40
18392;DHT22;9322;50.932;5.318;2023-05-07T10:07:45;26.10;1.40
18392;DHT22;9322;50.932;5.318;2023-05-07T10:10:11;26.30;1.40
18392;DHT22;9322;50.932;5.318;2023-05-07T10:12:38;26.20;1.40
18392;DHT22;9322;50.932;5.318;2023-05-07T10:15:09;25.70;1.40
18392;DHT22;9322;50.932;5.318;2023-05-07T10:17:40;25.40;1.40
18392;DHT22;9322;50.932;5.318;2023-05-07T10:20:06;25.20;1.40
18392;DHT22;9322;50.932;5.318;2023-05-07T10:22:39;25.10;1.40
18392;DHT22;9322;50.932;5.318;2023-05-07T10:25:18;25.00;1.40
18392;DHT22;9322;50.932;5.318;2023-05-07T10:27:45;24.50;1.40
18392;DHT22;9322;50.932;5.318;2023-05-07T10:33:03;24.20;1.40
18392;DHT22;9322;50.932;5.318;2023-05-07T10:35:40;24.00;1.40
18392;DHT22;9322;50.932;5.318;2023-05-07T10:38:07;23.70;1.40
18392;DHT22;9322;50.932;5.318;2023-05-07T10:40:33;23.70;1.40
18392;DHT22;9322;50.932;5.318;2023-05-07T10:43:00;23.40;1.40
18392;DHT22;9322;50.932;5.318;2023-05-07T10:45:27;23.10;1.40
18392;DHT22;9322;50.932;5.318;2023-05-07T10:48:13;23.20;1.40
18392;DHT22;9322;50.932;5.318;2023-05-07T10:50:41;23.10;1.40
18392;DHT22;9322;50.932;5.318;2023-05-07T10:55:47;23.20;1.40
18392;DHT22;9322;50.932;5.318;2023-05-07T10:58:25;23.10;1.40
18392;DHT22;9322;50.932;5.318;2023-05-07T11:00:59;23.40;1.40
18392;DHT22;9322;50.932;5.318;2023-05-07T11:03:28;23.30;1.40
18392;DHT22;9322;50.932;5.318;2023-05-07T11:06:11;23.30;1.40
18392;DHT22;9322;50.932;5.318;2023-05-07T11:11:18;23.20;1.40
18392;DHT22;9322;50.932;5.318;2023-05-07T11:13:47;22.80;1.40
18392;DHT22;9322;50.932;5.318;2023-05-07T11:16:32;22.90;1.40
18392;DHT22;9322;50.932;5.318;2023-05-07T11:18:59;22.60;1.40
18392;DHT22;9322;50.932;5.318;2023-05-07T11:21:37;22.00;1.40
18392;DHT22;9322;50.932;5.318;2023-05-07T11:24:04;22.10;1.40
18392;DHT22;9322;50.932;5.318;2023-05-07T11:26:41;22.10;1.40
18392;DHT22;9322;50.932;5.318;2023-05-07T11:29:18;21.70;1.40
18392;DHT22;9322;50.932;5.318;2023-05-07T11:31:51;21.70;1.40
18392;DHT22;9322;50.932;5.318;2023-05-07T11:34:24;21.80;1.40
18392;DHT22;9322;50.932;5.318;2023-05-07T11:36:51;21.70;1.40
18392;DHT22;9322;50.932;5.318;2023-05-07T11:39:27;21.60;1.40
18392;DHT22;9322;50.932;5.318;2023-05-07T11:41:53;21.50;1.40
18392;DHT22;9322;50.932;5.318;2023-05-07T11:44:18;21.40;1.40
18392;DHT22;9322;50.932;5.318;2023-05-07T11:46:44;21.30;1.40
18392;DHT22;9322;50.932;5.318;2023-05-07T11:49:10;21.30;1.40
18392;DHT22;9322;50.932;5.318;2023-05-07T11:51:36;21.30;1.40
18392;DHT22;9322;50.932;5.318;2023-05-07T11:54:04;21.50;1.40
18392;DHT22;9322;50.932;5.318;2023-05-07T11:56:34;21.70;1.40
18392;DHT22;9322;50.932;5.318;2023-05-07T11:59:04;21.60;1.40
18392;DHT22;9322;50.932;5.318;2023-05-07T12:01:30;21.60;1.40
18392;DHT22;9322;50.932;5.318;2023-05-07T12:03:56;21.60;1.40
18392;DHT22;9322;50.932;5.318;2023-05-07T12:06:21;21.60;1.40
18392;DHT22;9322;50.932;5.318;2023-05-07T12:08:47;21.50;1.40
18392;DHT22;9322;50.932;5.318;2023-05-07T12:11:21;21.80;1.40
18392;DHT22;9322;50.932;5.318;2023-05-07T12:13:47;21.80;1.40
18392;DHT22;9322;50.932;5.318;2023-05-07T12:16:13;21.70;1.40
18392;DHT22;9322;50.932;5.318;2023-05-07T12:18:40;21.70;1.40
18392;DHT22;9322;50.932;5.318;2023-05-07T12:21:06;21.70;1.40
18392;DHT22;9322;50.932;5.318;2023-05-07T12:23:33;22.00;1.40
18392;DHT22;9322;50.932;5.318;2023-05-07T12:26:00;21.40;1.40
18392;DHT22;9322;50.932;5.318;2023-05-07T12:28:26;21.40;1.40
18392;DHT22;9322;50.932;5.318;2023-05-07T12:30:51;21.80;1.40
18392;DHT22;9322;50.932;5.318;2023-05-07T12:33:19;21.80;1.40
18392;DHT22;9322;50.932;5.318;2023-05-07T12:35:48;22.00;1.40
18392;DHT22;9322;50.932;5.318;2023-05-07T12:38:15;22.00;1.40
18392;DHT22;9322;50.932;5.318;2023-05-07T12:40:47;21.70;1.40
18392;DHT22;9322;50.932;5.318;2023-05-07T12:43:19;21.80;1.40
18392;DHT22;9322;50.932;5.318;2023-05-07T12:45:48;21.90;1.40
18392;DHT22;9322;50.932;5.318;2023-05-07T12:48:14;21.50;1.40
18392;DHT22;9322;50.932;5.318;2023-05-07T12:50:40;21.70;1.40
18392;DHT22;9322;50.932;5.318;2023-05-07T12:53:07;21.90;1.40
18392;DHT22;9322;50.932;5.318;2023-05-07T12:55:44;22.00;1.40
18392;DHT22;9322;50.932;5.318;2023-05-07T12:58:18;22.20;1.40
18392;DHT22;9322;50.932;5.318;2023-05-07T13:00:47;22.40;1.40
18392;DHT22;9322;50.932;5.318;2023-05-07T13:03:21;22.50;1.40
18392;DHT22;9322;50.932;5.318;2023-05-07T13:05:48;22.50;1.40
18392;DHT22;9322;50.932;5.318;2023-05-07T13:08:27;22.60;1.40
18392;DHT22;9322;50.932;5.318;2023-05-07T13:10:53;22.20;1.40
18392;DHT22;9322;50.932;5.318;2023-05-07T13:13:19;22.30;1.40
18392;DHT22;9322;50.932;5.318;2023-05-07T13:15:46;22.10;1.40
18392;DHT22;9322;50.932;5.318;2023-05-07T13:18:11;22.10;1.40
18392;DHT22;9322;50.932;5.318;2023-05-07T13:20:37;21.70;1.40
18392;DHT22;9322;50.932;5.318;2023-05-07T13:23:03;21.80;1.40
18392;DHT22;9322;50.932;5.318;2023-05-07T13:25:32;21.70;1.40
18392;DHT22;9322;50.932;5.318;2023-05-07T13:27:58;22.00;1.40
18392;DHT22;9322;50.932;5.318;2023-05-07T13:30:24;22.00;1.40
18392;DHT22;9322;50.932;5.318;2023-05-07T13:32:49;21.40;1.40
18392;DHT22;9322;50.932;5.318;2023-05-07T13:35:16;21.50;1.40
18392;DHT22;9322;50.932;5.318;2023-05-07T13:37:42;21.90;1.40
18392;DHT22;9322;50.932;5.318;2023-05-07T13:40:08;21.90;1.40
18392;DHT22;9322;50.932;5.318;2023-05-07T13:42:33;21.90;1.40
18392;DHT22;9322;50.932;5.318;2023-05-07T13:44:59;22.30;1.40
18392;DHT22;9322;50.932;5.318;2023-05-07T13:47:25;22.20;1.40
18392;DHT22;9322;50.932;5.318;2023-05-07T13:49:51;22.70;1.40
18392;DHT22;9322;50.932;5.318;2023-05-07T13:52:17;23.00;1.40
18392;DHT22;9322;50.932;5.318;2023-05-07T13:54:43;23.10;1.40
18392;DHT22;9322;50.932;5.318;2023-05-07T13:57:09;22.60;1.40
18392;DHT22;9322;50.932;5.318;2023-05-07T13:59:34;22.30;1.40
18392;DHT22;9322;50.932;5.318;2023-05-07T14:02:00;22.10;1.40
18392;DHT22;9322;50.932;5.318;2023-05-07T14:04:26;22.00;1.40
18392;DHT22;9322;50.932;5.318;2023-05-07T14:06:52;22.00;1.40
18392;DHT22;9322;50.932;5.318;2023-05-07T14:09:17;22.00;1.40
18392;DHT22;9322;50.932;5.318;2023-05-07T14:11:43;22.00;1.40
18392;DHT22;9322;50.932;5.318;2023-05-07T14:14:09;22.20;1.40
18392;DHT22;9322;50.932;5.318;2023-05-07T14:16:37;22.40;1.40
18392;DHT22;9322;50.932;5.318;2023-05-07T14:19:03;22.50;1.40
18392;DHT22;9322;50.932;5.318;2023-05-07T14:21:29;22.30;1.40
18392;DHT22;9322;50.932;5.318;2023-05-07T14:23:55;22.40;1.40
18392;DHT22;9322;50.932;5.318;2023-05-07T14:26:22;22.50;1.40
18392;DHT22;9322;50.932;5.318;2023-05-07T14:28:48;22.50;1.40
18392;DHT22;9322;50.932;5.318;2023-05-07T14:31:14;22.80;1.40
18392;DHT22;9322;50.932;5.318;2023-05-07T14:33:40;22.40;1.40
18392;DHT22;9322;50.932;5.318;2023-05-07T14:36:06;22.30;1.40
18392;DHT22;9322;50.932;5.318;2023-05-07T14:38:32;22.30;1.40
18392;DHT22;9322;50.932;5.318;2023-05-07T14:40:58;22.50;1.40
18392;DHT22;9322;50.932;5.318;2023-05-07T14:43:24;22.70;1.40
18392;DHT22;9322;50.932;5.318;2023-05-07T14:45:49;22.50;1.40
18392;DHT22;9322;50.932;5.318;2023-05-07T14:48:15;22.40;1.40
18392;DHT22;9322;50.932;5.318;2023-05-07T14:50:42;22.70;1.40
18392;DHT22;9322;50.932;5.318;2023-05-07T14:53:07;22.80;1.40
18392;DHT22;9322;50.932;5.318;2023-05-07T14:55:34;22.80;1.40
18392;DHT22;9322;50.932;5.318;2023-05-07T14:58:00;22.80;1.40
18392;DHT22;9322;50.932;5.318;2023-05-07T15:00:26;22.90;1.40
18392;DHT22;9322;50.932;5.318;2023-05-07T15:02:52;22.90;1.40
18392;DHT22;9322;50.932;5.318;2023-05-07T15:05:18;23.00;1.40
18392;DHT22;9322;50.932;5.318;2023-05-07T15:07:44;22.40;1.40
18392;DHT22;9322;50.932;5.318;2023-05-07T15:10:10;22.00;1.40
18392;DHT22;9322;50.932;5.318;2023-05-07T15:12:36;21.70;1.40
18392;DHT22;9322;50.932;5.318;2023-05-07T15:15:02;21.80;1.40
18392;DHT22;9322;50.932;5.318;2023-05-07T15:17:28;21.80;1.40
18392;DHT22;9322;50.932;5.318;2023-05-07T15:19:53;21.60;1.40
18392;DHT22;9322;50.932;5.318;2023-05-07T15:22:19;21.70;1.40
18392;DHT22;9322;50.932;5.318;2023-05-07T15:24:46;21.60;1.40
18392;DHT22;9322;50.932;5.318;2023-05-07T15:27:12;21.50;1.40
18392;DHT22;9322;50.932;5.318;2023-05-07T15:29:38;21.60;1.40
18392;DHT22;9322;50.932;5.318;2023-05-07T15:32:03;21.90;1.40
18392;DHT22;9322;50.932;5.318;2023-05-07T15:34:30;21.80;1.40
18392;DHT22;9322;50.932;5.318;2023-05-07T15:36:56;21.80;1.40
18392;DHT22;9322;50.932;5.318;2023-05-07T15:39:24;21.80;1.40
18392;DHT22;9322;50.932;5.318;2023-05-07T15:41:50;21.70;1.40
18392;DHT22;9322;50.932;5.318;2023-05-07T15:44:16;21.60;1.40
18392;DHT22;9322;50.932;5.318;2023-05-07T15:46:41;21.70;1.40
18392;DHT22;9322;50.932;5.318;2023-05-07T15:49:07;21.90;1.40
18392;DHT22;9322;50.932;5.318;2023-05-07T15:51:34;22.00;1.40
18392;DHT22;9322;50.932;5.318;2023-05-07T15:54:00;22.10;1.40
18392;DHT22;9322;50.932;5.318;2023-05-07T15:56:26;21.90;1.40
18392;DHT22;9322;50.932;5.318;2023-05-07T15:58:52;21.60;1.40
18392;DHT22;9322;50.932;5.318;2023-05-07T16:01:18;21.60;1.40
18392;DHT22;9322;50.932;5.318;2023-05-07T16:03:44;21.70;1.40
18392;DHT22;9322;50.932;5.318;2023-05-07T16:06:09;21.60;1.40
18392;DHT22;9322;50.932;5.318;2023-05-07T16:08:37;21.40;1.40
18392;DHT22;9322;50.932;5.318;2023-05-07T16:11:04;21.50;1.40